sensor_id;sensor_type;location;lat;lon;timestamp;P1;durP1;ratioP1;P2;durP2;ratioP2
8139;SDS011;4111;50.972;7.072;2023-07-30T00:00:44;3.30;;;3.00;;
8139;SDS011;4111;50.972;7.072;2023-07-30T00:03:31;3.70;;;2.90;;
8139;SDS011;4111;50.972;7.072;2023-07-30T00:06:05;3.30;;;3.10;;
8139;SDS011;4111;50.972;7.072;2023-07-30T00:08:32;5.50;;;3.00;;
8139;SDS011;4111;50.972;7.072;2023-07-30T00:10:58;3.07;;;2.80;;
8139;SDS011;4111;50.972;7.072;2023-07-30T00:13:25;7.60;;;3.20;;
8139;SDS011;4111;50.972;7.072;2023-07-30T00:15:52;6.33;;;4.07;;
8139;SDS011;4111;50.972;7.072;2023-07-30T00:18:21;5.40;;;3.70;;
8139;SDS011;4111;50.972;7.072;2023-07-30T00:20:48;5.33;;;3.93;;
8139;SDS011;4111;50.972;7.072;2023-07-30T00:23:14;5.70;;;3.17;;
8139;SDS011;4111;50.972;7.072;2023-07-30T00:25:40;7.43;;;2.57;;
8139;SDS011;4111;50.972;7.072;2023-07-30T00:28:07;2.80;;;2.53;;
8139;SDS011;4111;50.972;7.072;2023-07-30T00:30:33;7.47;;;3.33;;
8139;SDS011;4111;50.972;7.072;2023-07-30T00:33:00;6.13;;;2.87;;
8139;SDS011;4111;50.972;7.072;2023-07-30T00:35:26;3.60;;;3.00;;
8139;SDS011;4111;50.972;7.072;2023-07-30T00:37:53;5.63;;;3.33;;
8139;SDS011;4111;50.972;7.072;2023-07-30T00:40:19;5.07;;;3.13;;
8139;SDS011;4111;50.972;7.072;2023-07-30T00:42:46;3.87;;;3.50;;
8139;SDS011;4111;50.972;7.072;2023-07-30T00:45:12;4.90;;;3.20;;
8139;SDS011;4111;50.972;7.072;2023-07-30T00:47:39;6.07;;;3.40;;
8139;SDS011;4111;50.972;7.072;2023-07-30T00:50:07;4.27;;;3.00;;
8139;SDS011;4111;50.972;7.072;2023-07-30T00:52:34;3.77;;;3.10;;
8139;SDS011;4111;50.972;7.072;2023-07-30T00:55:04;3.50;;;3.20;;
8139;SDS011;4111;50.972;7.072;2023-07-30T00:57:33;2.83;;;2.60;;
8139;SDS011;4111;50.972;7.072;2023-07-30T01:00:02;3.43;;;2.67;;
8139;SDS011;4111;50.972;7.072;2023-07-30T01:02:35;5.07;;;2.60;;
8139;SDS011;4111;50.972;7.072;2023-07-30T01:05:02;3.13;;;2.20;;
8139;SDS011;4111;50.972;7.072;2023-07-30T01:07:30;7.60;;;2.40;;
8139;SDS011;4111;50.972;7.072;2023-07-30T01:09:57;4.07;;;2.90;;
8139;SDS011;4111;50.972;7.072;2023-07-30T01:12:24;3.87;;;2.97;;
8139;SDS011;4111;50.972;7.072;2023-07-30T01:14:52;3.80;;;2.70;;
8139;SDS011;4111;50.972;7.072;2023-07-30T01:17:21;5.30;;;2.80;;
8139;SDS011;4111;50.972;7.072;2023-07-30T01:19:48;4.43;;;3.00;;
8139;SDS011;4111;50.972;7.072;2023-07-30T01:22:20;3.47;;;2.80;;
8139;SDS011;4111;50.972;7.072;2023-07-30T01:24:47;3.53;;;3.10;;
8139;SDS011;4111;50.972;7.072;2023-07-30T01:27:35;3.13;;;2.80;;
8139;SDS011;4111;50.972;7.072;2023-07-30T01:30:08;5.87;;;2.87;;
8139;SDS011;4111;50.972;7.072;2023-07-30T01:32:36;3.23;;;2.93;;
8139;SDS011;4111;50.972;7.072;2023-07-30T01:35:04;5.10;;;3.20;;
8139;SDS011;4111;50.972;7.072;2023-07-30T01:37:33;3.07;;;2.87;;
8139;SDS011;4111;50.972;7.072;2023-07-30T01:40:01;4.37;;;2.97;;
8139;SDS011;4111;50.972;7.072;2023-07-30T01:42:31;5.57;;;3.40;;
8139;SDS011;4111;50.972;7.072;2023-07-30T01:44:57;3.97;;;3.10;;
8139;SDS011;4111;50.972;7.072;2023-07-30T01:47:24;4.03;;;3.40;;
8139;SDS011;4111;50.972;7.072;2023-07-30T01:49:50;7.23;;;3.23;;
8139;SDS011;4111;50.972;7.072;2023-07-30T01:52:17;5.80;;;3.50;;
8139;SDS011;4111;50.972;7.072;2023-07-30T01:54:43;5.23;;;2.93;;
8139;SDS011;4111;50.972;7.072;2023-07-30T01:57:10;8.27;;;3.20;;
8139;SDS011;4111;50.972;7.072;2023-07-30T01:59:38;3.83;;;2.83;;
8139;SDS011;4111;50.972;7.072;2023-07-30T02:02:05;3.50;;;3.30;;
8139;SDS011;4111;50.972;7.072;2023-07-30T02:04:33;3.37;;;3.10;;
8139;SDS011;4111;50.972;7.072;2023-07-30T02:07:00;3.80;;;3.17;;
8139;SDS011;4111;50.972;7.072;2023-07-30T02:09:26;4.83;;;3.20;;
8139;SDS011;4111;50.972;7.072;2023-07-30T02:11:52;4.40;;;3.00;;
8139;SDS011;4111;50.972;7.072;2023-07-30T02:14:19;5.00;;;3.40;;
8139;SDS011;4111;50.972;7.072;2023-07-30T02:16:46;4.70;;;3.03;;
8139;SDS011;4111;50.972;7.072;2023-07-30T02:19:12;4.77;;;2.97;;
8139;SDS011;4111;50.972;7.072;2023-07-30T02:21:39;5.13;;;3.30;;
8139;SDS011;4111;50.972;7.072;2023-07-30T02:24:09;7.83;;;3.03;;
8139;SDS011;4111;50.972;7.072;2023-07-30T02:26:37;5.30;;;2.90;;
8139;SDS011;4111;50.972;7.072;2023-07-30T02:29:05;8.73;;;3.47;;
8139;SDS011;4111;50.972;7.072;2023-07-30T02:31:31;4.73;;;3.43;;
8139;SDS011;4111;50.972;7.072;2023-07-30T02:33:58;7.70;;;2.93;;
8139;SDS011;4111;50.972;7.072;2023-07-30T02:36:24;4.77;;;3.10;;
8139;SDS011;4111;50.972;7.072;2023-07-30T02:38:51;4.60;;;3.20;;
8139;SDS011;4111;50.972;7.072;2023-07-30T02:41:17;8.07;;;3.50;;
8139;SDS011;4111;50.972;7.072;2023-07-30T02:43:44;10.70;;;3.53;;
8139;SDS011;4111;50.972;7.072;2023-07-30T02:46:10;6.17;;;3.27;;
8139;SDS011;4111;50.972;7.072;2023-07-30T02:48:36;4.80;;;2.93;;
8139;SDS011;4111;50.972;7.072;2023-07-30T02:51:03;4.90;;;3.30;;
8139;SDS011;4111;50.972;7.072;2023-07-30T02:53:30;9.33;;;3.40;;
8139;SDS011;4111;50.972;7.072;2023-07-30T02:55:56;9.17;;;4.20;;
8139;SDS011;4111;50.972;7.072;2023-07-30T02:58:22;6.20;;;3.60;;
8139;SDS011;4111;50.972;7.072;2023-07-30T03:00:49;6.60;;;3.37;;
8139;SDS011;4111;50.972;7.072;2023-07-30T03:03:16;11.23;;;3.03;;
8139;SDS011;4111;50.972;7.072;2023-07-30T03:05:43;4.60;;;3.30;;
8139;SDS011;4111;50.972;7.072;2023-07-30T03:08:09;10.10;;;3.60;;
8139;SDS011;4111;50.972;7.072;2023-07-30T03:10:36;7.03;;;3.13;;
8139;SDS011;4111;50.972;7.072;2023-07-30T03:13:02;4.47;;;2.60;;
8139;SDS011;4111;50.972;7.072;2023-07-30T03:15:29;7.83;;;3.00;;
8139;SDS011;4111;50.972;7.072;2023-07-30T03:17:55;4.50;;;3.00;;
8139;SDS011;4111;50.972;7.072;2023-07-30T03:20:22;6.47;;;3.00;;
8139;SDS011;4111;50.972;7.072;2023-07-30T03:22:48;4.40;;;2.90;;
8139;SDS011;4111;50.972;7.072;2023-07-30T03:25:14;6.60;;;2.57;;
8139;SDS011;4111;50.972;7.072;2023-07-30T03:27:41;5.20;;;3.10;;
8139;SDS011;4111;50.972;7.072;2023-07-30T03:30:07;7.90;;;3.10;;
8139;SDS011;4111;50.972;7.072;2023-07-30T03:32:35;6.43;;;3.17;;
8139;SDS011;4111;50.972;7.072;2023-07-30T03:35:01;5.83;;;2.67;;
8139;SDS011;4111;50.972;7.072;2023-07-30T03:37:28;10.00;;;3.37;;
8139;SDS011;4111;50.972;7.072;2023-07-30T03:39:54;6.07;;;2.87;;
8139;SDS011;4111;50.972;7.072;2023-07-30T03:42:21;9.57;;;2.87;;
8139;SDS011;4111;50.972;7.072;2023-07-30T03:44:47;7.97;;;3.30;;
8139;SDS011;4111;50.972;7.072;2023-07-30T03:47:14;6.77;;;3.00;;
8139;SDS011;4111;50.972;7.072;2023-07-30T03:49:40;9.40;;;3.13;;
8139;SDS011;4111;50.972;7.072;2023-07-30T03:52:07;5.50;;;3.17;;
8139;SDS011;4111;50.972;7.072;2023-07-30T03:54:33;4.67;;;2.87;;
8139;SDS011;4111;50.972;7.072;2023-07-30T03:56:59;5.20;;;2.80;;
8139;SDS011;4111;50.972;7.072;2023-07-30T03:59:26;8.07;;;2.90;;
8139;SDS011;4111;50.972;7.072;2023-07-30T04:01:54;12.27;;;3.73;;
8139;SDS011;4111;50.972;7.072;2023-07-30T04:04:21;8.07;;;3.23;;
8139;SDS011;4111;50.972;7.072;2023-07-30T04:06:47;6.13;;;3.13;;
8139;SDS011;4111;50.972;7.072;2023-07-30T04:09:14;6.70;;;3.20;;
8139;SDS011;4111;50.972;7.072;2023-07-30T04:11:40;5.53;;;3.00;;
8139;SDS011;4111;50.972;7.072;2023-07-30T04:14:06;8.07;;;3.17;;
8139;SDS011;4111;50.972;7.072;2023-07-30T04:16:35;9.40;;;3.10;;
8139;SDS011;4111;50.972;7.072;2023-07-30T04:19:01;6.40;;;3.33;;
8139;SDS011;4111;50.972;7.072;2023-07-30T04:21:28;5.60;;;2.80;;
8139;SDS011;4111;50.972;7.072;2023-07-30T04:23:54;5.60;;;2.80;;
8139;SDS011;4111;50.972;7.072;2023-07-30T04:26:20;4.80;;;2.77;;
8139;SDS011;4111;50.972;7.072;2023-07-30T04:28:47;7.47;;;3.10;;
8139;SDS011;4111;50.972;7.072;2023-07-30T04:31:13;7.07;;;2.90;;
8139;SDS011;4111;50.972;7.072;2023-07-30T04:33:40;4.33;;;2.83;;
8139;SDS011;4111;50.972;7.072;2023-07-30T04:36:06;3.67;;;2.80;;
8139;SDS011;4111;50.972;7.072;2023-07-30T04:38:34;5.57;;;3.10;;
8139;SDS011;4111;50.972;7.072;2023-07-30T04:41:00;7.17;;;3.47;;
8139;SDS011;4111;50.972;7.072;2023-07-30T04:43:26;6.63;;;3.13;;
8139;SDS011;4111;50.972;7.072;2023-07-30T04:45:53;9.93;;;3.10;;
8139;SDS011;4111;50.972;7.072;2023-07-30T04:48:19;11.27;;;3.37;;
8139;SDS011;4111;50.972;7.072;2023-07-30T04:50:46;5.30;;;2.80;;
8139;SDS011;4111;50.972;7.072;2023-07-30T04:53:12;10.13;;;3.20;;
8139;SDS011;4111;50.972;7.072;2023-07-30T04:55:39;6.73;;;3.20;;
8139;SDS011;4111;50.972;7.072;2023-07-30T04:58:05;6.87;;;2.90;;
8139;SDS011;4111;50.972;7.072;2023-07-30T05:00:31;4.43;;;2.50;;
8139;SDS011;4111;50.972;7.072;2023-07-30T05:02:58;7.10;;;2.83;;
8139;SDS011;4111;50.972;7.072;2023-07-30T05:05:25;5.23;;;2.87;;
8139;SDS011;4111;50.972;7.072;2023-07-30T05:07:51;7.73;;;2.50;;
8139;SDS011;4111;50.972;7.072;2023-07-30T05:10:17;6.90;;;2.70;;
8139;SDS011;4111;50.972;7.072;2023-07-30T05:12:44;4.97;;;2.43;;
8139;SDS011;4111;50.972;7.072;2023-07-30T05:15:10;6.97;;;3.00;;
8139;SDS011;4111;50.972;7.072;2023-07-30T05:17:37;5.53;;;2.60;;
8139;SDS011;4111;50.972;7.072;2023-07-30T05:20:03;6.53;;;2.77;;
8139;SDS011;4111;50.972;7.072;2023-07-30T05:22:30;4.70;;;2.30;;
8139;SDS011;4111;50.972;7.072;2023-07-30T05:24:57;7.47;;;2.13;;
8139;SDS011;4111;50.972;7.072;2023-07-30T05:27:23;5.63;;;2.13;;
8139;SDS011;4111;50.972;7.072;2023-07-30T05:29:50;3.77;;;2.13;;
8139;SDS011;4111;50.972;7.072;2023-07-30T05:32:16;6.73;;;2.37;;
8139;SDS011;4111;50.972;7.072;2023-07-30T05:34:43;4.67;;;2.63;;
8139;SDS011;4111;50.972;7.072;2023-07-30T05:37:09;3.57;;;1.90;;
8139;SDS011;4111;50.972;7.072;2023-07-30T05:39:35;4.87;;;2.40;;
8139;SDS011;4111;50.972;7.072;2023-07-30T05:42:02;5.93;;;1.87;;
8139;SDS011;4111;50.972;7.072;2023-07-30T05:44:29;7.13;;;2.03;;
8139;SDS011;4111;50.972;7.072;2023-07-30T05:46:55;7.90;;;2.00;;
8139;SDS011;4111;50.972;7.072;2023-07-30T05:49:21;6.07;;;2.33;;
8139;SDS011;4111;50.972;7.072;2023-07-30T05:51:48;5.53;;;1.90;;
8139;SDS011;4111;50.972;7.072;2023-07-30T05:54:14;7.67;;;2.63;;
8139;SDS011;4111;50.972;7.072;2023-07-30T05:56:41;5.67;;;2.33;;
8139;SDS011;4111;50.972;7.072;2023-07-30T05:59:07;4.27;;;2.00;;
8139;SDS011;4111;50.972;7.072;2023-07-30T06:01:34;10.63;;;2.40;;
8139;SDS011;4111;50.972;7.072;2023-07-30T06:04:00;3.93;;;1.90;;
8139;SDS011;4111;50.972;7.072;2023-07-30T06:06:28;11.50;;;2.87;;
8139;SDS011;4111;50.972;7.072;2023-07-30T06:08:55;3.80;;;2.00;;
8139;SDS011;4111;50.972;7.072;2023-07-30T06:11:22;4.67;;;2.03;;
8139;SDS011;4111;50.972;7.072;2023-07-30T06:13:49;8.83;;;2.57;;
8139;SDS011;4111;50.972;7.072;2023-07-30T06:16:16;4.97;;;1.83;;
8139;SDS011;4111;50.972;7.072;2023-07-30T06:18:45;4.67;;;2.40;;
8139;SDS011;4111;50.972;7.072;2023-07-30T06:21:11;8.83;;;2.00;;
8139;SDS011;4111;50.972;7.072;2023-07-30T06:23:38;6.40;;;2.47;;
8139;SDS011;4111;50.972;7.072;2023-07-30T06:26:04;4.93;;;2.27;;
8139;SDS011;4111;50.972;7.072;2023-07-30T06:28:31;4.60;;;1.80;;
8139;SDS011;4111;50.972;7.072;2023-07-30T06:31:01;9.43;;;2.40;;
8139;SDS011;4111;50.972;7.072;2023-07-30T06:33:28;4.40;;;1.90;;
8139;SDS011;4111;50.972;7.072;2023-07-30T06:35:58;8.17;;;2.30;;
8139;SDS011;4111;50.972;7.072;2023-07-30T06:38:25;5.10;;;2.40;;
8139;SDS011;4111;50.972;7.072;2023-07-30T06:40:52;4.00;;;2.07;;
8139;SDS011;4111;50.972;7.072;2023-07-30T06:43:18;4.77;;;2.00;;
8139;SDS011;4111;50.972;7.072;2023-07-30T06:45:45;4.73;;;2.17;;
8139;SDS011;4111;50.972;7.072;2023-07-30T06:48:11;6.33;;;2.40;;
8139;SDS011;4111;50.972;7.072;2023-07-30T06:50:37;4.50;;;1.77;;
8139;SDS011;4111;50.972;7.072;2023-07-30T06:53:04;7.77;;;2.43;;
8139;SDS011;4111;50.972;7.072;2023-07-30T06:55:30;6.30;;;2.00;;
8139;SDS011;4111;50.972;7.072;2023-07-30T06:57:57;10.50;;;2.47;;
8139;SDS011;4111;50.972;7.072;2023-07-30T07:00:23;4.33;;;2.00;;
8139;SDS011;4111;50.972;7.072;2023-07-30T07:02:50;5.53;;;2.07;;
8139;SDS011;4111;50.972;7.072;2023-07-30T07:05:16;3.53;;;1.80;;
8139;SDS011;4111;50.972;7.072;2023-07-30T07:07:43;6.50;;;2.00;;
8139;SDS011;4111;50.972;7.072;2023-07-30T07:10:09;7.50;;;2.20;;
8139;SDS011;4111;50.972;7.072;2023-07-30T07:12:39;2.83;;;1.80;;
8139;SDS011;4111;50.972;7.072;2023-07-30T07:15:06;3.87;;;1.87;;
8139;SDS011;4111;50.972;7.072;2023-07-30T07:17:32;5.90;;;1.90;;
8139;SDS011;4111;50.972;7.072;2023-07-30T07:19:59;5.40;;;1.77;;
8139;SDS011;4111;50.972;7.072;2023-07-30T07:22:25;6.43;;;1.70;;
8139;SDS011;4111;50.972;7.072;2023-07-30T07:24:52;7.43;;;1.90;;
8139;SDS011;4111;50.972;7.072;2023-07-30T07:27:18;5.80;;;1.97;;
8139;SDS011;4111;50.972;7.072;2023-07-30T07:29:45;7.87;;;1.77;;
8139;SDS011;4111;50.972;7.072;2023-07-30T07:32:11;2.77;;;1.63;;
8139;SDS011;4111;50.972;7.072;2023-07-30T07:34:38;3.07;;;1.80;;
8139;SDS011;4111;50.972;7.072;2023-07-30T07:37:04;5.27;;;1.90;;
8139;SDS011;4111;50.972;7.072;2023-07-30T07:39:32;4.27;;;2.13;;
8139;SDS011;4111;50.972;7.072;2023-07-30T07:41:59;7.13;;;1.90;;
8139;SDS011;4111;50.972;7.072;2023-07-30T07:44:26;3.63;;;2.00;;
8139;SDS011;4111;50.972;7.072;2023-07-30T07:46:52;4.10;;;1.87;;
8139;SDS011;4111;50.972;7.072;2023-07-30T07:49:19;4.00;;;1.70;;
8139;SDS011;4111;50.972;7.072;2023-07-30T07:51:45;4.77;;;1.83;;
8139;SDS011;4111;50.972;7.072;2023-07-30T07:54:11;4.83;;;2.20;;
8139;SDS011;4111;50.972;7.072;2023-07-30T07:56:38;5.20;;;2.00;;
8139;SDS011;4111;50.972;7.072;2023-07-30T07:59:04;5.53;;;2.00;;
8139;SDS011;4111;50.972;7.072;2023-07-30T08:01:31;6.87;;;2.30;;
8139;SDS011;4111;50.972;7.072;2023-07-30T08:03:57;7.23;;;2.10;;
8139;SDS011;4111;50.972;7.072;2023-07-30T08:06:24;7.23;;;2.33;;
8139;SDS011;4111;50.972;7.072;2023-07-30T08:08:51;7.73;;;2.23;;
8139;SDS011;4111;50.972;7.072;2023-07-30T08:11:17;6.73;;;2.53;;
8139;SDS011;4111;50.972;7.072;2023-07-30T08:13:43;5.53;;;2.00;;
8139;SDS011;4111;50.972;7.072;2023-07-30T08:16:10;8.33;;;2.50;;
8139;SDS011;4111;50.972;7.072;2023-07-30T08:18:36;5.77;;;2.23;;
8139;SDS011;4111;50.972;7.072;2023-07-30T08:21:03;7.13;;;2.50;;
8139;SDS011;4111;50.972;7.072;2023-07-30T08:23:29;7.27;;;2.40;;
8139;SDS011;4111;50.972;7.072;2023-07-30T08:25:56;6.30;;;2.60;;
8139;SDS011;4111;50.972;7.072;2023-07-30T08:28:22;9.73;;;2.30;;
8139;SDS011;4111;50.972;7.072;2023-07-30T08:30:48;8.13;;;2.93;;
8139;SDS011;4111;50.972;7.072;2023-07-30T08:33:15;5.43;;;2.40;;
8139;SDS011;4111;50.972;7.072;2023-07-30T08:35:41;5.73;;;2.67;;
8139;SDS011;4111;50.972;7.072;2023-07-30T08:38:08;7.67;;;2.83;;
8139;SDS011;4111;50.972;7.072;2023-07-30T08:40:34;8.83;;;3.37;;
8139;SDS011;4111;50.972;7.072;2023-07-30T08:43:01;6.63;;;2.33;;
8139;SDS011;4111;50.972;7.072;2023-07-30T08:45:29;8.03;;;2.50;;
8139;SDS011;4111;50.972;7.072;2023-07-30T08:47:55;13.00;;;3.20;;
8139;SDS011;4111;50.972;7.072;2023-07-30T08:50:22;8.37;;;2.90;;
8139;SDS011;4111;50.972;7.072;2023-07-30T08:52:49;8.97;;;2.80;;
8139;SDS011;4111;50.972;7.072;2023-07-30T08:55:16;6.43;;;2.70;;
8139;SDS011;4111;50.972;7.072;2023-07-30T08:57:43;9.57;;;3.13;;
8139;SDS011;4111;50.972;7.072;2023-07-30T09:00:11;8.90;;;2.83;;
8139;SDS011;4111;50.972;7.072;2023-07-30T09:02:51;6.93;;;2.40;;
8139;SDS011;4111;50.972;7.072;2023-07-30T09:05:19;6.57;;;2.87;;
8139;SDS011;4111;50.972;7.072;2023-07-30T09:07:47;9.43;;;3.57;;
8139;SDS011;4111;50.972;7.072;2023-07-30T09:10:13;8.40;;;3.00;;
8139;SDS011;4111;50.972;7.072;2023-07-30T09:12:46;15.13;;;4.00;;
8139;SDS011;4111;50.972;7.072;2023-07-30T09:15:30;6.90;;;2.63;;
8139;SDS011;4111;50.972;7.072;2023-07-30T09:18:04;10.30;;;3.27;;
8139;SDS011;4111;50.972;7.072;2023-07-30T09:20:38;9.43;;;3.17;;
8139;SDS011;4111;50.972;7.072;2023-07-30T09:23:06;8.23;;;2.70;;
8139;SDS011;4111;50.972;7.072;2023-07-30T09:25:34;13.07;;;3.47;;
8139;SDS011;4111;50.972;7.072;2023-07-30T09:28:01;8.83;;;3.20;;
8139;SDS011;4111;50.972;7.072;2023-07-30T09:30:28;6.97;;;2.90;;
8139;SDS011;4111;50.972;7.072;2023-07-30T09:32:55;9.77;;;2.90;;
8139;SDS011;4111;50.972;7.072;2023-07-30T09:35:23;5.93;;;2.80;;
8139;SDS011;4111;50.972;7.072;2023-07-30T09:37:58;9.87;;;2.60;;
8139;SDS011;4111;50.972;7.072;2023-07-30T09:40:33;6.33;;;2.50;;
8139;SDS011;4111;50.972;7.072;2023-07-30T09:43:02;5.53;;;2.17;;
8139;SDS011;4111;50.972;7.072;2023-07-30T09:45:32;5.83;;;2.33;;
8139;SDS011;4111;50.972;7.072;2023-07-30T09:48:00;9.07;;;2.70;;
8139;SDS011;4111;50.972;7.072;2023-07-30T09:50:29;8.63;;;2.50;;
8139;SDS011;4111;50.972;7.072;2023-07-30T09:52:56;7.93;;;2.57;;
8139;SDS011;4111;50.972;7.072;2023-07-30T09:55:25;12.37;;;2.63;;
8139;SDS011;4111;50.972;7.072;2023-07-30T09:57:51;7.97;;;3.10;;
8139;SDS011;4111;50.972;7.072;2023-07-30T10:00:17;7.40;;;2.83;;
8139;SDS011;4111;50.972;7.072;2023-07-30T10:02:48;5.43;;;2.20;;
8139;SDS011;4111;50.972;7.072;2023-07-30T10:05:17;5.43;;;1.93;;
8139;SDS011;4111;50.972;7.072;2023-07-30T10:10:29;7.97;;;2.33;;
8139;SDS011;4111;50.972;7.072;2023-07-30T10:12:58;8.43;;;2.60;;
8139;SDS011;4111;50.972;7.072;2023-07-30T10:15:29;10.53;;;2.83;;
8139;SDS011;4111;50.972;7.072;2023-07-30T10:17:56;8.97;;;2.80;;
8139;SDS011;4111;50.972;7.072;2023-07-30T10:20:27;10.60;;;2.73;;
8139;SDS011;4111;50.972;7.072;2023-07-30T10:22:58;10.57;;;3.50;;
8139;SDS011;4111;50.972;7.072;2023-07-30T10:25:30;9.27;;;2.80;;
8139;SDS011;4111;50.972;7.072;2023-07-30T10:28:11;6.23;;;2.63;;
8139;SDS011;4111;50.972;7.072;2023-07-30T10:31:06;7.73;;;2.33;;
8139;SDS011;4111;50.972;7.072;2023-07-30T10:33:54;6.70;;;2.30;;
8139;SDS011;4111;50.972;7.072;2023-07-30T10:36:40;7.07;;;2.53;;
8139;SDS011;4111;50.972;7.072;2023-07-30T10:41:51;8.47;;;2.37;;
8139;SDS011;4111;50.972;7.072;2023-07-30T10:44:33;7.63;;;2.30;;
8139;SDS011;4111;50.972;7.072;2023-07-30T10:47:01;8.10;;;2.30;;
8139;SDS011;4111;50.972;7.072;2023-07-30T10:49:35;6.10;;;2.40;;
8139;SDS011;4111;50.972;7.072;2023-07-30T10:52:02;8.10;;;2.43;;
8139;SDS011;4111;50.972;7.072;2023-07-30T10:54:35;7.10;;;2.43;;
8139;SDS011;4111;50.972;7.072;2023-07-30T10:57:03;5.60;;;2.10;;
8139;SDS011;4111;50.972;7.072;2023-07-30T10:59:34;5.27;;;2.10;;
8139;SDS011;4111;50.972;7.072;2023-07-30T11:02:02;4.53;;;2.03;;
8139;SDS011;4111;50.972;7.072;2023-07-30T11:04:33;5.67;;;2.20;;
8139;SDS011;4111;50.972;7.072;2023-07-30T11:07:01;7.80;;;2.03;;
8139;SDS011;4111;50.972;7.072;2023-07-30T11:09:29;4.63;;;2.20;;
8139;SDS011;4111;50.972;7.072;2023-07-30T11:11:55;6.77;;;1.90;;
8139;SDS011;4111;50.972;7.072;2023-07-30T11:14:23;4.83;;;1.77;;
8139;SDS011;4111;50.972;7.072;2023-07-30T11:16:53;4.30;;;1.93;;
8139;SDS011;4111;50.972;7.072;2023-07-30T11:19:20;5.03;;;2.17;;
8139;SDS011;4111;50.972;7.072;2023-07-30T11:21:50;6.10;;;2.30;;
8139;SDS011;4111;50.972;7.072;2023-07-30T11:24:20;5.33;;;2.17;;
8139;SDS011;4111;50.972;7.072;2023-07-30T11:26:56;4.93;;;2.27;;
8139;SDS011;4111;50.972;7.072;2023-07-30T11:29:27;6.40;;;1.90;;
8139;SDS011;4111;50.972;7.072;2023-07-30T11:31:58;6.83;;;1.90;;
8139;SDS011;4111;50.972;7.072;2023-07-30T11:34:26;8.33;;;2.07;;
8139;SDS011;4111;50.972;7.072;2023-07-30T11:36:53;4.67;;;1.87;;
8139;SDS011;4111;50.972;7.072;2023-07-30T11:39:20;5.50;;;2.17;;
8139;SDS011;4111;50.972;7.072;2023-07-30T11:41:47;7.47;;;2.83;;
8139;SDS011;4111;50.972;7.072;2023-07-30T11:47:06;6.37;;;1.83;;
8139;SDS011;4111;50.972;7.072;2023-07-30T11:49:33;4.20;;;1.67;;
8139;SDS011;4111;50.972;7.072;2023-07-30T11:52:04;4.03;;;1.90;;
8139;SDS011;4111;50.972;7.072;2023-07-30T11:54:34;5.40;;;1.73;;
8139;SDS011;4111;50.972;7.072;2023-07-30T11:57:01;4.90;;;1.80;;
8139;SDS011;4111;50.972;7.072;2023-07-30T11:59:27;3.37;;;1.80;;
8139;SDS011;4111;50.972;7.072;2023-07-30T12:01:56;4.80;;;1.87;;
8139;SDS011;4111;50.972;7.072;2023-07-30T12:04:23;4.37;;;1.80;;
8139;SDS011;4111;50.972;7.072;2023-07-30T12:06:52;5.43;;;1.80;;
8139;SDS011;4111;50.972;7.072;2023-07-30T12:09:21;6.23;;;2.17;;
8139;SDS011;4111;50.972;7.072;2023-07-30T12:11:51;4.40;;;1.97;;
8139;SDS011;4111;50.972;7.072;2023-07-30T12:14:21;4.20;;;1.77;;
8139;SDS011;4111;50.972;7.072;2023-07-30T12:16:48;3.07;;;1.63;;
8139;SDS011;4111;50.972;7.072;2023-07-30T12:19:15;8.13;;;1.80;;
8139;SDS011;4111;50.972;7.072;2023-07-30T12:21:41;7.43;;;2.20;;
8139;SDS011;4111;50.972;7.072;2023-07-30T12:24:08;4.17;;;1.90;;
8139;SDS011;4111;50.972;7.072;2023-07-30T12:26:35;4.20;;;2.20;;
8139;SDS011;4111;50.972;7.072;2023-07-30T12:29:02;6.43;;;1.90;;
8139;SDS011;4111;50.972;7.072;2023-07-30T12:31:28;7.20;;;2.30;;
8139;SDS011;4111;50.972;7.072;2023-07-30T12:33:55;8.70;;;2.30;;
8139;SDS011;4111;50.972;7.072;2023-07-30T12:36:21;6.00;;;1.90;;
8139;SDS011;4111;50.972;7.072;2023-07-30T12:38:48;4.83;;;2.00;;
8139;SDS011;4111;50.972;7.072;2023-07-30T12:41:14;3.60;;;1.63;;
8139;SDS011;4111;50.972;7.072;2023-07-30T12:43:40;5.43;;;1.83;;
8139;SDS011;4111;50.972;7.072;2023-07-30T12:46:07;6.97;;;2.13;;
8139;SDS011;4111;50.972;7.072;2023-07-30T12:48:33;5.67;;;2.07;;
8139;SDS011;4111;50.972;7.072;2023-07-30T12:51:00;6.23;;;2.10;;
8139;SDS011;4111;50.972;7.072;2023-07-30T12:53:26;4.90;;;2.00;;
8139;SDS011;4111;50.972;7.072;2023-07-30T12:55:53;3.33;;;1.97;;
8139;SDS011;4111;50.972;7.072;2023-07-30T12:58:19;6.20;;;2.13;;
8139;SDS011;4111;50.972;7.072;2023-07-30T13:00:46;8.10;;;2.23;;
8139;SDS011;4111;50.972;7.072;2023-07-30T13:03:12;9.83;;;2.13;;
8139;SDS011;4111;50.972;7.072;2023-07-30T13:05:39;4.90;;;2.03;;
8139;SDS011;4111;50.972;7.072;2023-07-30T13:08:05;5.80;;;2.37;;
8139;SDS011;4111;50.972;7.072;2023-07-30T13:10:31;4.87;;;2.03;;
8139;SDS011;4111;50.972;7.072;2023-07-30T13:12:58;6.13;;;1.97;;
8139;SDS011;4111;50.972;7.072;2023-07-30T13:15:24;6.33;;;2.10;;
8139;SDS011;4111;50.972;7.072;2023-07-30T13:17:51;7.53;;;2.00;;
8139;SDS011;4111;50.972;7.072;2023-07-30T13:20:17;6.37;;;2.33;;
8139;SDS011;4111;50.972;7.072;2023-07-30T13:22:45;7.00;;;2.43;;
8139;SDS011;4111;50.972;7.072;2023-07-30T13:25:12;7.80;;;2.20;;
8139;SDS011;4111;50.972;7.072;2023-07-30T13:27:38;7.87;;;2.70;;
8139;SDS011;4111;50.972;7.072;2023-07-30T13:30:05;7.20;;;2.03;;
8139;SDS011;4111;50.972;7.072;2023-07-30T13:32:32;5.90;;;2.30;;
8139;SDS011;4111;50.972;7.072;2023-07-30T13:34:58;6.57;;;2.60;;
8139;SDS011;4111;50.972;7.072;2023-07-30T13:37:25;4.97;;;1.93;;
8139;SDS011;4111;50.972;7.072;2023-07-30T13:39:51;7.03;;;2.70;;
8139;SDS011;4111;50.972;7.072;2023-07-30T13:42:18;6.40;;;2.27;;
8139;SDS011;4111;50.972;7.072;2023-07-30T13:44:44;6.83;;;2.23;;
8139;SDS011;4111;50.972;7.072;2023-07-30T13:47:11;8.60;;;2.23;;
8139;SDS011;4111;50.972;7.072;2023-07-30T13:49:40;5.37;;;2.40;;
8139;SDS011;4111;50.972;7.072;2023-07-30T13:52:06;7.67;;;2.33;;
8139;SDS011;4111;50.972;7.072;2023-07-30T13:54:33;3.73;;;2.07;;
8139;SDS011;4111;50.972;7.072;2023-07-30T13:57:01;6.90;;;2.33;;
8139;SDS011;4111;50.972;7.072;2023-07-30T13:59:29;3.97;;;2.10;;
8139;SDS011;4111;50.972;7.072;2023-07-30T14:01:55;4.90;;;1.97;;
8139;SDS011;4111;50.972;7.072;2023-07-30T14:04:22;4.10;;;2.10;;
8139;SDS011;4111;50.972;7.072;2023-07-30T14:06:48;8.63;;;2.03;;
8139;SDS011;4111;50.972;7.072;2023-07-30T14:09:15;6.83;;;2.23;;
8139;SDS011;4111;50.972;7.072;2023-07-30T14:11:42;8.63;;;2.60;;
8139;SDS011;4111;50.972;7.072;2023-07-30T14:14:11;7.13;;;2.23;;
8139;SDS011;4111;50.972;7.072;2023-07-30T14:16:38;4.50;;;2.63;;
8139;SDS011;4111;50.972;7.072;2023-07-30T14:19:04;4.00;;;2.27;;
8139;SDS011;4111;50.972;7.072;2023-07-30T14:21:31;6.97;;;2.23;;
8139;SDS011;4111;50.972;7.072;2023-07-30T14:23:57;5.10;;;2.50;;
8139;SDS011;4111;50.972;7.072;2023-07-30T14:26:24;4.23;;;1.90;;
8139;SDS011;4111;50.972;7.072;2023-07-30T14:28:50;2.80;;;1.53;;
8139;SDS011;4111;50.972;7.072;2023-07-30T14:31:16;2.57;;;1.80;;
8139;SDS011;4111;50.972;7.072;2023-07-30T14:33:43;5.53;;;1.93;;
8139;SDS011;4111;50.972;7.072;2023-07-30T14:36:09;5.47;;;2.20;;
8139;SDS011;4111;50.972;7.072;2023-07-30T14:38:37;7.37;;;1.87;;
8139;SDS011;4111;50.972;7.072;2023-07-30T14:41:04;5.87;;;1.90;;
8139;SDS011;4111;50.972;7.072;2023-07-30T14:43:31;4.00;;;1.90;;
8139;SDS011;4111;50.972;7.072;2023-07-30T14:45:58;5.87;;;1.70;;
8139;SDS011;4111;50.972;7.072;2023-07-30T14:48:25;5.10;;;2.20;;
8139;SDS011;4111;50.972;7.072;2023-07-30T14:50:51;9.70;;;2.30;;
8139;SDS011;4111;50.972;7.072;2023-07-30T14:53:18;5.10;;;1.70;;
8139;SDS011;4111;50.972;7.072;2023-07-30T14:55:44;5.83;;;2.00;;
8139;SDS011;4111;50.972;7.072;2023-07-30T14:58:11;3.63;;;2.00;;
8139;SDS011;4111;50.972;7.072;2023-07-30T15:00:37;6.03;;;2.20;;
8139;SDS011;4111;50.972;7.072;2023-07-30T15:03:04;3.33;;;1.80;;
8139;SDS011;4111;50.972;7.072;2023-07-30T15:05:31;14.47;;;2.70;;
8139;SDS011;4111;50.972;7.072;2023-07-30T15:07:59;5.03;;;1.90;;
8139;SDS011;4111;50.972;7.072;2023-07-30T15:10:25;7.07;;;2.50;;
8139;SDS011;4111;50.972;7.072;2023-07-30T15:12:52;6.50;;;2.00;;
8139;SDS011;4111;50.972;7.072;2023-07-30T15:15:18;4.17;;;1.80;;
8139;SDS011;4111;50.972;7.072;2023-07-30T15:17:45;5.50;;;1.93;;
8139;SDS011;4111;50.972;7.072;2023-07-30T15:20:11;4.70;;;1.90;;
8139;SDS011;4111;50.972;7.072;2023-07-30T15:22:37;4.83;;;2.03;;
8139;SDS011;4111;50.972;7.072;2023-07-30T15:25:04;6.57;;;2.17;;